Terminal Aerodrome Forecast
Issued by NWS St Louis, MO

Home | Current Version | Previous Version | Text Only | Print | Product List | Glossary On
Versions: 1 2 3 4 5 6 7 8 9 10 11 12 13 14 15 16 17 18 19 20 21 22 23
000
FTUS43 KLSX 191700
TAFCOU
TAF
KCOU 191738Z 1918/2018 12004KT P6SM BKN024 OVC050
     FM200400 15004KT 5SM BR BKN007 OVC015
     FM201100 16004KT 3SM BR OVC004
     FM201600 17006KT 5SM BR BKN007 OVC015=

USA.gov is the U.S. government's official web portal to all federal, state and local government web resources and services.